Погода Текирдагна неделю

Мармара, Турция

02 - 08 сентября
  • 02сентября
    Сегодня
    +20°
    +28°
    Ясно и безоблачно
    ВремяПогодаТемператураВлажностьДавлениеВетер, м/сВероятность осадков
    00:00Ясно и безоблачно+23°C71 %763 мм1.7 м/с2 %
    03:00Ясно и безоблачно+21°C78 %763 мм1.6 м/с2 %
    06:00Ясно и безоблачно+20°C81 %763 мм2.0 м/с2 %
    09:00Ясно и безоблачно+24°C69 %763 мм2.1 м/с2 %
    12:00Ясно и безоблачно+26°C65 %763 мм3.5 м/с2 %
    15:00Ясно и безоблачно+26°C68 %762 мм3.7 м/с2 %
    18:00Ясно и безоблачно+28°C60 %761 мм2.2 м/с2 %
    21:00Ясно и безоблачно+25°C61 %762 мм3.0 м/с2 %
  • 03сентября
    Четверг
    +20°
    +29°
    Ясно и безоблачно
    ВремяПогодаТемператураВлажностьДавлениеВетер, м/сВероятность осадков
    00:00Ясно и безоблачно+23°C70 %762 мм1.9 м/с2 %
    03:00Ясно и безоблачно+21°C77 %762 мм1.7 м/с2 %
    06:00Ясно и безоблачно+21°C81 %762 мм2.2 м/с2 %
    09:00Ясно и безоблачно+24°C70 %762 мм2.5 м/с2 %
    12:00Ясно и безоблачно+27°C65 %762 мм3.9 м/с2 %
    15:00Ясно и безоблачно+28°C58 %760 мм4.5 м/с2 %
    18:00Ясно и безоблачно+28°C54 %760 мм4.1 м/с2 %
    21:00Ясно и безоблачно+25°C63 %761 мм3.0 м/с1 %
  • 04сентября
    Пятница
    +19°
    +29°
    Ясно и безоблачно
    ВремяПогодаТемператураВлажностьДавлениеВетер, м/сВероятность осадков
    00:00Ясно и безоблачно+23°C72 %761 мм1.9 м/с1 %
    03:00Ясно и безоблачно+20°C79 %760 мм1.8 м/с2 %
    06:00Ясно и безоблачно+20°C82 %760 мм2.2 м/с2 %
    09:00Ясно и безоблачно+24°C72 %761 мм2.7 м/с2 %
    12:00Практически безоблачно+27°C60 %761 мм4.5 м/с8 %
    15:00Ясно и безоблачно+28°C57 %761 мм4.9 м/с13 %
    18:00Ясно и безоблачно+28°C54 %761 мм4.0 м/с9 %
    21:00Ясно и безоблачно+25°C61 %762 мм2.9 м/с2 %
  • 05сентября
    Суббота
    +20°
    +28°
    Ясно и безоблачно
    ВремяПогодаТемператураВлажностьДавлениеВетер, м/сВероятность осадков
    00:00Ясно и безоблачно+23°C71 %763 мм1.7 м/с2 %
    03:00Ясно и безоблачно+20°C79 %762 мм1.4 м/с2 %
    06:00Ясно и безоблачно+20°C81 %763 мм2.0 м/с2 %
    09:00Ясно и безоблачно+24°C68 %763 мм1.9 м/с2 %
    12:00Ясно и безоблачно+26°C65 %763 мм3.3 м/с2 %
    15:00Ясно и безоблачно+26°C68 %762 мм3.7 м/с2 %
    18:00Ясно и безоблачно+27°C62 %761 мм2.2 м/с2 %
    21:00Ясно и безоблачно+25°C63 %762 мм1.7 м/с2 %
  • 06сентября
    Воскресенье
    +19°
    +28°
    Ясно и безоблачно
    ВремяПогодаТемператураВлажностьДавлениеВетер, м/сВероятность осадков
    00:00Ясно и безоблачно+23°C68 %763 мм0.6 м/с2 %
    03:00Ясно и безоблачно+21°C73 %763 мм0.7 м/с2 %
    06:00Ясно и безоблачно+21°C74 %763 мм1.5 м/с2 %
    09:00Ясно и безоблачно+25°C61 %763 мм1.0 м/с2 %
    12:00Ясно и безоблачно+26°C67 %764 мм2.9 м/с2 %
    15:00Ясно и безоблачно+27°C68 %763 мм3.8 м/с2 %
    18:00Ясно и безоблачно+27°C69 %763 мм2.5 м/с7 %
    21:00Ясно и безоблачно+25°C69 %765 мм2.9 м/с2 %
  • 07сентября
    Понедельник
    +17°
    +28°
    Облачно с прояснениями
    ВремяПогодаТемператураВлажностьДавлениеВетер, м/сВероятность осадков
    03:00Ясно и безоблачно+21°C81 %766 мм1.4 м/с2 %
    09:00Ясно и безоблачно+24°C71 %767 мм2.0 м/с2 %
    15:00Облачно с прояснениями+26°C64 %766 мм4.4 м/с9 %
    21:00Ясно и безоблачно+23°C58 %767 мм5.5 м/с2 %
  • 08сентября
    Вторник
    +16°
    +28°
    Ясно и безоблачно
    ВремяПогодаТемператураВлажностьДавлениеВетер, м/сВероятность осадков
    03:00Ясно и безоблачно+19°C71 %766 мм4.2 м/с2 %
    09:00Ясно и безоблачно+21°C63 %766 мм4.9 м/с2 %
    15:00Ясно и безоблачно+27°C43 %764 мм5.1 м/с2 %
    21:00Ясно и безоблачно+22°C59 %763 мм4.9 м/с2 %
Мы используем cookies
Соглашаюсь